KINT/INT METAR and TAF weather

Enter ICAO airport designator
Station Type Date Time Source
KINT METAR 2019/05/27 09:54 UTC NOAA

KINT 270954Z AUTO 33007KT 10SM CLR 22/16 A3001 RMK AO2 SLP149 T02220161 TSNO


Station Type Date Time Source
KINT Decoded METAR 2019/05/27 09:54 UTC NOAA

WINSTON SALEM SMITH REYNOLDS, NC, United States (KINT) 36-08N 80-14W 291M
May 27, 2019 - 05:54 AM EDT / 2019.05.27 0954 UTC
Wind: from the NNW (330 degrees) at 8 MPH (7 KT):0
Visibility: 10 mile(s):0
Sky conditions: clear
Temperature: 72.0 F (22.2 C)
Dew Point: 61.0 F (16.1 C)
Relative Humidity: 68%
Pressure (altimeter): 30.01 in. Hg (1016 hPa)
ob: KINT 270954Z AUTO 33007KT 10SM CLR 22/16 A3001 RMK AO2 SLP149 T02220161 TSNO
cycle: 10

Station Type Date Time Source
KINT TAF 2019/05/27 06:45 UTC NOAA

TAF KINT 270540Z 2706/2806 31005KT P6SM SCT110
TEMPO 2706/2708 35008KT
FM271700 32010KT P6SM SCT050

Example: see airport list